Time;durP1;ratioP1;P1;durP2;ratioP2;P2;SDS_P1;SDS_P2;PMS_P1;PMS_P2;Temp;Humidity;BMP_temperature;BMP_pressure;BME280_temperature;BME280_humidity;BME280_pressure;Samples;Min_cycle;Max_cycle;Signal;HPM_P1;HPM_P2
2022/08/26 00:02:03;;;;;;;75.97;8.43;;;24.90;1.00;;;;;;5079338;28;20172;-81
2022/08/26 00:04:30;;;;;;;70.73;7.07;;;24.90;1.00;;;;;;5078554;28;20406;-81
2022/08/26 00:06:56;;;;;;;73.80;7.43;;;24.90;1.00;;;;;;5079988;28;20789;-81
2022/08/26 00:09:23;;;;;;;71.87;8.10;;;24.80;1.00;;;;;;5078852;28;20409;-81
2022/08/26 00:11:48;;;;;;;79.97;7.53;;;24.80;1.00;;;;;;5079328;28;20237;-81
2022/08/26 00:14:15;;;;;;;77.60;8.57;;;24.80;1.00;;;;;;5075445;28;20413;-80
2022/08/26 00:16:42;;;;;;;74.40;9.07;;;24.80;1.00;;;;;;5075705;28;20253;-80
2022/08/26 00:19:09;;;;;;;76.50;9.10;;;24.80;1.00;;;;;;5075187;28;20402;-81
2022/08/26 00:21:35;;;;;;;82.33;10.37;;;24.70;1.00;;;;;;5079766;28;20444;-81
2022/08/26 00:24:01;;;;;;;75.00;10.27;;;24.70;1.00;;;;;;5082166;28;20405;-81
2022/08/26 00:26:27;;;;;;;77.53;11.70;;;24.70;1.00;;;;;;5078656;28;20433;-80
2022/08/26 00:28:53;;;;;;;80.93;14.17;;;24.80;1.00;;;;;;5078470;28;20194;-80
2022/08/26 00:31:18;;;;;;;81.67;17.70;;;24.80;1.00;;;;;;5079168;28;20294;-80
2022/08/26 00:33:44;;;;;;;88.30;27.13;;;24.60;1.00;;;;;;5078838;28;20352;-81
2022/08/26 00:36:10;;;;;;;87.07;23.97;;;24.60;1.00;;;;;;5079089;28;20189;-80
2022/08/26 00:38:36;;;;;;;86.10;28.70;;;24.60;2.30;;;;;;5079221;28;20580;-80
2022/08/26 00:41:02;;;;;;;93.33;32.23;;;24.60;7.30;;;;;;5079583;28;20164;-81
2022/08/26 00:43:32;;;;;;;94.77;31.30;;;24.40;21.20;;;;;;5079507;28;20421;-80
2022/08/26 00:46:10;;;;;;;94.27;31.13;;;24.30;33.20;;;;;;5078610;28;20409;-80
2022/08/26 00:48:38;;;;;;;88.60;25.60;;;24.20;34.10;;;;;;5078233;28;20394;-80
2022/08/26 00:51:15;;;;;;;89.90;25.13;;;24.20;41.70;;;;;;5077768;28;20436;-81
2022/08/26 00:53:47;;;;;;;94.43;27.90;;;24.30;40.70;;;;;;5078635;28;20382;-81
2022/08/26 00:56:28;;;;;;;93.20;25.80;;;24.20;45.10;;;;;;5078196;28;20384;-80
2022/08/26 00:58:57;;;;;;;94.40;27.20;;;24.20;44.20;;;;;;5078491;28;20509;-80
2022/08/26 01:01:25;;;;;;;94.40;29.30;;;24.20;52.60;;;;;;5080831;28;20429;-80
2022/08/26 01:03:51;;;;;;;96.97;32.00;;;24.20;54.80;;;;;;5080482;28;20408;-81
2022/08/26 01:06:18;;;;;;;102.80;35.27;;;24.20;55.10;;;;;;5078244;28;20512;-80
2022/08/26 01:08:44;;;;;;;96.47;29.87;;;24.20;63.50;;;;;;5077910;28;20444;-80
2022/08/26 01:11:11;;;;;;;102.30;33.40;;;24.20;61.10;;;;;;5060780;28;20418;-81
2022/08/26 01:13:40;;;;;;;105.47;35.07;;;24.10;68.50;;;;;;5078159;28;20400;-81
2022/08/26 01:16:10;;;;;;;106.87;37.67;;;24.10;74.40;;;;;;5077369;28;20787;-80
2022/08/26 01:18:38;;;;;;;107.97;37.57;;;24.00;77.70;;;;;;5078094;28;20389;-81
2022/08/26 01:21:28;;;;;;;111.93;38.87;;;24.00;77.40;;;;;;5077892;28;20906;-80
2022/08/26 01:23:55;;;;;;;101.67;36.67;;;23.90;89.70;;;;;;5077949;28;20465;-81
2022/08/26 01:26:24;;;;;;;105.77;40.90;;;23.90;87.80;;;;;;5078692;28;20502;-81
2022/08/26 01:28:55;;;;;;;102.10;37.87;;;23.80;89.10;;;;;;5079505;28;20445;-84
2022/08/26 01:31:24;;;;;;;105.43;42.97;;;23.90;87.20;;;;;;5079955;28;20428;-81
2022/08/26 01:34:19;;;;;;;121.03;44.33;;;23.80;91.20;;;;;;5078250;28;20483;-81
2022/08/26 01:36:46;;;;;;;110.17;45.20;;;23.80;89.00;;;;;;5076963;28;20426;-81
2022/08/26 01:39:12;;;;;;;108.83;44.03;;;23.80;92.50;;;;;;5079804;28;20403;-80
2022/08/26 01:41:39;;;;;;;112.13;48.53;;;23.80;91.60;;;;;;5077142;28;20427;-80
2022/08/26 01:44:08;;;;;;;114.63;44.47;;;23.80;91.10;;;;;;5058814;28;20228;-81
2022/08/26 01:46:34;;;;;;;100.87;37.07;;;23.90;91.30;;;;;;5078726;28;20430;-81
2022/08/26 01:49:03;;;;;;;106.60;41.10;;;23.90;90.10;;;;;;5078708;28;20810;-81
2022/08/26 01:51:30;;;;;;;107.00;43.60;;;23.90;88.00;;;;;;5079446;28;20447;-80
2022/08/26 01:53:57;;;;;;;110.67;39.97;;;24.00;86.90;;;;;;5076610;28;20401;-80
2022/08/26 01:56:23;;;;;;;111.47;42.97;;;23.90;89.70;;;;;;5079298;28;20421;-81
2022/08/26 01:58:53;;;;;;;108.37;42.03;;;23.90;91.80;;;;;;5079356;28;20389;-81
2022/08/26 02:01:20;;;;;;;104.17;38.97;;;23.90;92.30;;;;;;5078678;28;20472;-80
2022/08/26 02:04:17;;;;;;;105.60;45.57;;;23.80;92.50;;;;;;5078384;28;20541;-81
2022/08/26 02:06:44;;;;;;;111.93;46.27;;;23.70;94.10;;;;;;5067783;28;20509;-81
2022/08/26 02:09:11;;;;;;;104.97;45.10;;;23.70;97.00;;;;;;5076158;28;20410;-81
2022/08/26 02:11:37;;;;;;;101.43;40.50;;;23.70;96.40;;;;;;5079272;28;20473;-81
2022/08/26 02:14:10;;;;;;;106.00;36.63;;;23.70;95.50;;;;;;5061583;28;20404;-81
2022/08/26 02:16:39;;;;;;;101.77;42.70;;;23.70;95.70;;;;;;5061219;28;20426;-81
2022/08/26 02:19:13;;;;;;;102.20;43.07;;;23.50;97.20;;;;;;5058912;28;20414;-81
2022/08/26 02:21:39;;;;;;;104.47;44.00;;;23.60;97.00;;;;;;5076879;28;20403;-81
2022/08/26 02:24:23;;;;;;;109.37;48.23;;;23.50;96.90;;;;;;5061131;28;20498;-81
2022/08/26 02:26:50;;;;;;;107.90;51.03;;;23.50;97.50;;;;;;5079243;28;20430;-80
2022/08/26 02:29:22;;;;;;;105.50;44.53;;;23.50;98.70;;;;;;5075783;28;20452;-81
2022/08/26 02:31:49;;;;;;;97.77;41.70;;;23.60;96.80;;;;;;5078921;28;20993;-81
2022/08/26 02:34:20;;;;;;;101.10;44.00;;;23.60;96.90;;;;;;5058099;28;20451;-80
2022/08/26 02:36:48;;;;;;;112.87;48.00;;;23.50;98.20;;;;;;5076546;28;20419;-81
2022/08/26 02:39:15;;;;;;;101.40;45.90;;;23.50;98.60;;;;;;5079265;28;20395;-81
2022/08/26 02:41:42;;;;;;;98.63;43.87;;;23.50;98.30;;;;;;5078902;28;20557;-81
2022/08/26 02:44:08;;;;;;;101.47;44.93;;;23.50;98.50;;;;;;5078299;28;20415;-81
2022/08/26 02:46:34;;;;;;;103.13;44.90;;;23.50;98.70;;;;;;5060408;28;20433;-81
2022/08/26 02:49:00;;;;;;;108.77;45.53;;;23.50;97.00;;;;;;5078444;28;20920;-81
2022/08/26 02:51:26;;;;;;;103.70;47.47;;;23.60;99.00;;;;;;5077908;28;20454;-81
2022/08/26 02:53:52;;;;;;;99.53;42.93;;;23.50;99.90;;;;;;5077805;28;20401;-81
2022/08/26 02:56:18;;;;;;;107.20;45.13;;;23.50;99.90;;;;;;5077773;28;20433;-80
2022/08/26 02:58:44;;;;;;;110.57;44.30;;;23.40;99.90;;;;;;5075469;28;20427;-80
2022/08/26 03:01:27;;;;;;;94.23;36.27;;;23.10;99.90;;;;;;5077923;28;20246;-81
2022/08/26 03:03:53;;;;;;;106.40;39.00;;;23.20;99.90;;;;;;5079176;28;20156;-81
2022/08/26 03:06:20;;;;;;;104.20;39.33;;;23.30;99.90;;;;;;5075913;28;20513;-80
2022/08/26 03:08:46;;;;;;;108.17;37.10;;;23.30;99.90;;;;;;5077479;28;20402;-81
2022/08/26 03:11:12;;;;;;;105.33;35.60;;;23.20;99.90;;;;;;5077883;28;20531;-81
2022/08/26 03:13:39;;;;;;;100.33;33.00;;;23.10;99.90;;;;;;5075406;28;20404;-80
2022/08/26 03:16:05;;;;;;;99.10;34.63;;;23.20;99.90;;;;;;5075252;28;20864;-80
2022/08/26 03:18:31;;;;;;;102.10;36.20;;;23.20;99.90;;;;;;5075650;28;20399;-80
2022/08/26 03:20:58;;;;;;;103.53;32.33;;;23.20;99.90;;;;;;5075852;28;20403;-80
2022/08/26 03:23:24;;;;;;;109.07;34.53;;;23.20;99.90;;;;;;5075085;28;20394;-81
2022/08/26 03:25:51;;;;;;;100.90;32.40;;;23.20;99.90;;;;;;5057305;28;20442;-81
2022/08/26 03:28:17;;;;;;;103.80;31.87;;;23.30;99.90;;;;;;5075362;28;20818;-80
2022/08/26 03:30:43;;;;;;;98.70;29.40;;;23.30;99.90;;;;;;5075271;28;20422;-80
2022/08/26 03:33:10;;;;;;;97.77;31.10;;;23.20;99.90;;;;;;5074963;28;20449;-83
2022/08/26 03:35:37;;;;;;;99.50;30.90;;;23.30;99.90;;;;;;5074969;28;20962;-83
2022/08/26 03:38:05;;;;;;;100.57;29.37;;;23.30;99.90;;;;;;5074988;28;20418;-81
2022/08/26 03:40:34;;;;;;;99.23;30.43;;;23.30;99.90;;;;;;5057078;28;20418;-81
2022/08/26 03:43:02;;;;;;;95.40;30.30;;;23.40;99.90;;;;;;5077549;28;20398;-81
2022/08/26 03:45:27;;;;;;;102.27;33.27;;;23.50;99.90;;;;;;5078348;28;20430;-80
2022/08/26 03:47:53;;;;;;;101.40;31.63;;;23.50;99.90;;;;;;5075361;28;20422;-80
2022/08/26 03:50:21;;;;;;;100.87;33.50;;;23.40;99.90;;;;;;5075057;28;20169;-81
2022/08/26 03:52:47;;;;;;;102.27;32.00;;;23.40;99.90;;;;;;5057212;28;20195;-82
2022/08/26 03:55:14;;;;;;;100.03;31.13;;;23.40;99.90;;;;;;5078248;28;20421;-83
2022/08/26 03:57:40;;;;;;;98.93;28.57;;;23.30;99.90;;;;;;5077987;28;20784;-81
2022/08/26 04:00:10;;;;;;;99.97;30.90;;;23.30;99.90;;;;;;5081498;28;20478;-81
2022/08/26 04:02:36;;;;;;;97.20;29.13;;;23.40;99.90;;;;;;5078787;28;20441;-81
2022/08/26 04:05:03;;;;;;;100.87;31.00;;;23.30;99.90;;;;;;5078707;28;20398;-80
2022/08/26 04:07:28;;;;;;;93.10;25.40;;;23.20;99.90;;;;;;5081379;28;20467;-80
2022/08/26 04:09:56;;;;;;;95.63;28.30;;;23.30;99.90;;;;;;5078794;28;20489;-80
2022/08/26 04:12:23;;;;;;;92.30;26.73;;;23.20;99.90;;;;;;5079183;28;20184;-82
2022/08/26 04:14:49;;;;;;;98.50;28.33;;;23.20;99.90;;;;;;5062821;28;20410;-81
2022/08/26 04:17:15;;;;;;;97.53;29.00;;;23.20;99.90;;;;;;5062878;28;20426;-81
2022/08/26 04:19:40;;;;;;;92.07;27.13;;;23.20;99.90;;;;;;5080521;28;20164;-81
2022/08/26 04:22:07;;;;;;;92.70;23.80;;;23.30;99.90;;;;;;5078125;28;20161;-80
2022/08/26 04:24:33;;;;;;;95.73;26.67;;;23.30;99.90;;;;;;5061526;28;20179;-80
2022/08/26 04:27:02;;;;;;;97.03;26.90;;;23.30;99.90;;;;;;5060344;28;20425;-80
2022/08/26 04:29:28;;;;;;;93.07;25.87;;;23.30;99.90;;;;;;5152120;22;20482;-82
2022/08/26 04:31:54;;;;;;;93.20;25.60;;;23.20;99.90;;;;;;5090332;28;20446;-81
2022/08/26 04:34:21;;;;;;;93.57;26.07;;;23.20;99.90;;;;;;5072964;28;20413;-81
2022/08/26 04:36:47;;;;;;;102.00;26.70;;;23.20;99.90;;;;;;5091044;28;20475;-81
2022/08/26 04:39:15;;;;;;;92.63;25.10;;;23.20;99.90;;;;;;5073312;28;20409;-81
2022/08/26 04:41:43;;;;;;;92.80;26.27;;;23.20;99.90;;;;;;5072151;28;20411;-82
2022/08/26 04:44:09;;;;;;;102.03;28.53;;;23.10;99.90;;;;;;5089407;28;20406;-81
2022/08/26 04:46:36;;;;;;;89.27;24.63;;;23.10;99.90;;;;;;5090953;28;20451;-82
2022/08/26 04:49:07;;;;;;;92.80;23.20;;;23.10;99.90;;;;;;5091126;28;20410;-82
2022/08/26 04:51:34;;;;;;;102.13;24.87;;;23.10;99.90;;;;;;5090538;28;20517;-82
2022/08/26 04:54:01;;;;;;;91.10;23.50;;;23.10;99.90;;;;;;5090241;28;20438;-82
2022/08/26 04:56:30;;;;;;;88.70;22.50;;;23.00;99.90;;;;;;5090079;28;20426;-82
2022/08/26 04:58:56;;;;;;;90.37;24.40;;;23.00;99.90;;;;;;5072076;28;20438;-82
2022/08/26 05:01:22;;;;;;;89.10;21.90;;;23.00;99.90;;;;;;5072569;28;20437;-82
2022/08/26 05:03:48;;;;;;;88.77;22.17;;;23.00;99.90;;;;;;5072170;28;20581;-81
2022/08/26 05:06:15;;;;;;;87.97;22.00;;;23.10;99.90;;;;;;5090214;28;20425;-81
2022/08/26 05:08:40;;;;;;;87.40;21.33;;;23.10;99.90;;;;;;5071334;28;20513;-81
2022/08/26 05:11:06;;;;;;;84.90;21.93;;;23.10;99.90;;;;;;5089204;28;20424;-82
2022/08/26 05:13:33;;;;;;;92.27;23.37;;;23.00;99.90;;;;;;5072118;28;20260;-82
2022/08/26 05:16:05;;;;;;;84.47;19.70;;;23.00;99.90;;;;;;5072622;28;20482;-81
2022/08/26 05:18:32;;;;;;;87.30;19.03;;;23.10;99.90;;;;;;5089551;28;20395;-82
2022/08/26 05:20:59;;;;;;;91.40;20.70;;;23.20;99.90;;;;;;5070967;28;20413;-81
2022/08/26 05:23:25;;;;;;;87.80;20.97;;;23.20;99.90;;;;;;5089106;28;20779;-81
2022/08/26 05:25:53;;;;;;;86.10;20.40;;;23.20;99.90;;;;;;5089695;28;20493;-81
2022/08/26 05:28:20;;;;;;;87.57;18.70;;;23.20;99.90;;;;;;5071335;28;21028;-82
2022/08/26 05:30:47;;;;;;;83.07;18.50;;;23.20;99.90;;;;;;5088356;28;20498;-81
2022/08/26 05:33:13;;;;;;;83.80;17.40;;;23.20;99.90;;;;;;5088185;28;20983;-82
2022/08/26 05:35:40;;;;;;;88.03;18.20;;;23.20;99.90;;;;;;5087563;28;20395;-81
2022/08/26 05:38:09;;;;;;;80.70;16.50;;;23.20;99.90;;;;;;5086511;28;20415;-82
2022/08/26 05:40:41;;;;;;;77.20;14.57;;;23.20;99.90;;;;;;5085992;28;20394;-82
2022/08/26 05:43:10;;;;;;;82.27;17.70;;;23.20;99.90;;;;;;5086766;28;20406;-83
2022/08/26 05:45:47;;;;;;;80.07;16.10;;;23.20;99.90;;;;;;5069431;28;20425;-82
2022/08/26 05:48:18;;;;;;;82.97;17.30;;;23.10;99.90;;;;;;5086984;28;20452;-82
2022/08/26 05:50:50;;;;;;;87.43;15.57;;;23.10;99.90;;;;;;5068526;28;20414;-82
2022/08/26 05:53:18;;;;;;;79.23;15.53;;;23.00;99.90;;;;;;5068298;28;20453;-83
2022/08/26 05:55:50;;;;;;;80.87;15.40;;;23.00;99.90;;;;;;5069062;28;20406;-81
2022/08/26 05:58:19;;;;;;;81.47;16.40;;;23.00;99.90;;;;;;5085684;28;20429;-82
2022/08/26 06:00:55;;;;;;;86.23;14.90;;;23.10;99.90;;;;;;5069950;28;20421;-81
2022/08/26 06:03:20;;;;;;;80.00;15.17;;;23.10;99.90;;;;;;5081896;28;20393;-82
2022/08/26 06:05:46;;;;;;;79.00;13.67;;;23.20;99.90;;;;;;5082948;28;20478;-83
2022/08/26 06:08:15;;;;;;;80.90;15.57;;;23.20;99.90;;;;;;5081790;28;20188;-82
2022/08/26 06:10:46;;;;;;;79.80;15.23;;;23.10;99.90;;;;;;5064804;28;20168;-83
2022/08/26 06:13:13;;;;;;;80.60;15.20;;;23.20;99.90;;;;;;5069095;28;20453;-84
2022/08/26 06:15:46;;;;;;;77.90;14.20;;;23.20;99.90;;;;;;5068012;28;20772;-83
2022/08/26 06:18:13;;;;;;;83.37;13.50;;;23.20;99.90;;;;;;5086027;28;20410;-83
2022/08/26 06:20:43;;;;;;;81.33;16.10;;;23.20;99.90;;;;;;5084171;28;20406;-83
2022/08/26 06:25:58;;;;;;;79.97;15.20;;;23.00;99.90;;;;;;5084376;28;20390;-83
2022/08/26 06:28:25;;;;;;;78.97;15.40;;;23.10;99.90;;;;;;5083676;28;20448;-83
2022/08/26 06:30:51;;;;;;;80.20;16.20;;;23.20;99.90;;;;;;5084303;28;20398;-83
2022/08/26 06:33:17;;;;;;;82.47;13.40;;;23.20;99.90;;;;;;5084729;28;20446;-83
2022/08/26 06:35:45;;;;;;;78.10;13.50;;;23.30;99.90;;;;;;5086140;28;20402;-83
2022/08/26 06:38:12;;;;;;;77.20;13.50;;;23.40;99.90;;;;;;5068274;28;20426;-83
2022/08/26 06:41:08;;;;;;;78.90;12.80;;;23.40;99.90;;;;;;5067457;28;20406;-83
2022/08/26 06:43:34;;;;;;;78.87;12.33;;;23.40;99.90;;;;;;5084436;28;20410;-83
2022/08/26 06:46:03;;;;;;;77.67;12.47;;;23.40;99.90;;;;;;5084449;28;20402;-83
2022/08/26 06:48:29;;;;;;;74.40;12.73;;;23.40;99.90;;;;;;5084501;28;20731;-82
2022/08/26 06:51:11;;;;;;;75.77;11.67;;;23.50;99.90;;;;;;5084577;28;20408;-83
2022/08/26 06:53:39;;;;;;;77.07;13.33;;;23.50;99.90;;;;;;5084606;28;20404;-83
2022/08/26 06:56:07;;;;;;;76.63;13.07;;;23.60;99.90;;;;;;5066886;28;20399;-83
2022/08/26 06:58:34;;;;;;;77.00;13.90;;;23.50;99.90;;;;;;5084354;28;20390;-84
2022/08/26 07:01:00;;;;;;;76.43;12.27;;;23.50;99.90;;;;;;5084909;28;20397;-84
2022/08/26 07:03:26;;;;;;;80.80;13.27;;;23.40;99.90;;;;;;5086040;28;20422;-83
2022/08/26 07:05:52;;;;;;;76.57;12.07;;;23.30;99.90;;;;;;5065915;28;20195;-83
2022/08/26 07:08:21;;;;;;;71.77;11.03;;;23.30;99.90;;;;;;5085097;28;20414;-83
2022/08/26 07:10:46;;;;;;;71.37;10.10;;;23.40;99.90;;;;;;5066010;28;20913;-83
2022/08/26 07:13:12;;;;;;;75.07;11.07;;;23.40;99.90;;;;;;5066965;28;20442;-83
2022/08/26 07:15:40;;;;;;;78.20;11.83;;;23.50;99.90;;;;;;5085187;28;20165;-83
2022/08/26 07:20:41;;;;;;;75.30;10.70;;;23.50;99.90;;;;;;5107706;22;20485;-86
2022/08/26 07:23:08;;;;;;;74.00;9.80;;;23.50;99.90;;;;;;5091055;28;20394;-86
2022/08/26 07:25:37;;;;;;;73.23;10.50;;;23.60;99.90;;;;;;5073870;28;20179;-86
2022/08/26 07:28:03;;;;;;;71.33;10.57;;;23.50;99.90;;;;;;5074258;28;20441;-85
2022/08/26 07:30:29;;;;;;;74.70;10.03;;;23.50;99.90;;;;;;5091109;28;20394;-85
2022/08/26 07:32:57;;;;;;;74.27;10.97;;;23.50;99.90;;;;;;5074005;28;20445;-84
2022/08/26 07:35:24;;;;;;;75.70;11.00;;;23.50;99.90;;;;;;5073973;28;20436;-85
2022/08/26 07:37:50;;;;;;;76.00;10.40;;;23.40;99.90;;;;;;5073083;28;20438;-85
2022/08/26 07:40:16;;;;;;;76.33;9.77;;;23.50;99.90;;;;;;5074149;28;20407;-85
2022/08/26 07:42:42;;;;;;;81.53;10.97;;;23.40;99.90;;;;;;5072578;28;20410;-84
2022/08/26 07:45:08;;;;;;;75.13;10.40;;;23.40;99.90;;;;;;5091885;28;20163;-85
2022/08/26 07:47:33;;;;;;;76.27;10.60;;;23.40;99.90;;;;;;5092110;28;20188;-85
2022/08/26 07:49:59;;;;;;;82.27;11.40;;;23.50;99.90;;;;;;5072839;28;20177;-85
2022/08/26 07:52:28;;;;;;;76.33;10.33;;;23.50;99.90;;;;;;5091315;28;20555;-85
2022/08/26 07:54:55;;;;;;;76.73;10.03;;;23.60;99.90;;;;;;5091591;28;20164;-85
2022/08/26 07:57:21;;;;;;;79.80;12.27;;;23.50;99.90;;;;;;5073776;28;20430;-85
2022/08/26 07:59:47;;;;;;;80.27;15.27;;;23.40;99.90;;;;;;5091168;28;20923;-85
2022/08/26 08:02:12;;;;;;;80.80;12.10;;;23.40;99.90;;;;;;5091391;28;20175;-85
2022/08/26 08:04:38;;;;;;;75.50;12.03;;;23.40;99.90;;;;;;5091910;28;20177;-85
2022/08/26 08:07:04;;;;;;;76.07;10.47;;;23.40;99.90;;;;;;5091271;28;20195;-85
2022/08/26 08:09:29;;;;;;;94.70;24.50;;;23.40;99.90;;;;;;5092051;28;20175;-85
2022/08/26 08:11:55;;;;;;;80.60;16.33;;;23.40;99.90;;;;;;5091476;28;20208;-86
2022/08/26 08:14:21;;;;;;;83.03;12.67;;;23.40;99.40;;;;;;5073942;28;20221;-85
2022/08/26 08:16:47;;;;;;;85.90;17.13;;;23.40;99.70;;;;;;5073413;28;20191;-86
2022/08/26 08:19:13;;;;;;;79.80;14.07;;;23.30;99.90;;;;;;5090434;28;20462;-85
2022/08/26 08:21:39;;;;;;;75.50;11.87;;;23.40;99.40;;;;;;5091246;28;20219;-85
2022/08/26 08:24:05;;;;;;;74.77;12.10;;;23.20;99.90;;;;;;5072661;28;20411;-85
2022/08/26 08:26:31;;;;;;;87.33;18.77;;;23.10;99.90;;;;;;5091166;28;20192;-85
2022/08/26 08:28:57;;;;;;;84.57;18.30;;;23.00;99.90;;;;;;5091363;28;20440;-85
2022/08/26 08:31:31;;;;;;;82.27;18.77;;;22.90;99.90;;;;;;5073620;28;20175;-85
2022/08/26 08:33:57;;;;;;;92.20;25.53;;;22.80;99.90;;;;;;5072248;28;20177;-84
2022/08/26 08:36:23;;;;;;;90.93;22.93;;;22.90;99.90;;;;;;5071893;28;20410;-83
2022/08/26 08:38:49;;;;;;;83.47;17.10;;;22.90;99.90;;;;;;5089833;28;20402;-83
2022/08/26 08:41:50;;;;;;;78.33;14.80;;;22.90;99.90;;;;;;5089802;28;20383;-83
2022/08/26 08:44:20;;;;;;;79.10;15.93;;;23.10;99.90;;;;;;5093151;28;20433;-84
2022/08/26 08:46:58;;;;;;;81.90;16.47;;;23.00;99.90;;;;;;5092774;28;20406;-83
2022/08/26 08:49:27;;;;;;;88.43;19.50;;;23.00;99.90;;;;;;5093622;28;20370;-83
2022/08/26 08:52:04;;;;;;;87.33;20.80;;;23.00;99.90;;;;;;5093153;28;20434;-84
2022/08/26 08:54:30;;;;;;;95.10;25.23;;;23.10;99.90;;;;;;5093001;28;20788;-84
2022/08/26 08:57:11;;;;;;;88.20;24.00;;;23.00;99.90;;;;;;5093466;28;20497;-83
2022/08/26 08:59:43;;;;;;;93.10;24.87;;;23.00;99.90;;;;;;5093305;28;20393;-83
2022/08/26 09:02:17;;;;;;;89.40;22.50;;;23.00;99.90;;;;;;5094112;28;20761;-83
2022/08/26 09:04:55;;;;;;;80.47;18.53;;;22.90;99.90;;;;;;5075936;28;20440;-84
2022/08/26 09:07:42;;;;;;;82.00;18.93;;;22.80;99.90;;;;;;5093358;28;20440;-84
2022/08/26 09:10:10;;;;;;;83.30;17.47;;;23.00;99.90;;;;;;5095640;28;20405;-83
2022/08/26 09:12:36;;;;;;;84.67;18.50;;;23.10;99.90;;;;;;5095215;28;20442;-83
2022/08/26 09:15:30;;;;;;;82.47;17.70;;;23.10;99.90;;;;;;5078016;28;20413;-84
2022/08/26 09:18:22;;;;;;;76.10;15.03;;;23.00;99.90;;;;;;5089038;28;20430;-83
2022/08/26 09:20:53;;;;;;;82.77;16.17;;;22.80;99.90;;;;;;5095682;28;20379;-84
2022/08/26 09:23:19;;;;;;;80.77;16.33;;;22.70;99.90;;;;;;5093593;28;20371;-84
2022/08/26 09:25:57;;;;;;;75.57;12.80;;;22.70;99.90;;;;;;5093351;28;20409;-84
2022/08/26 09:28:25;;;;;;;78.00;13.53;;;22.70;99.90;;;;;;5075653;28;20194;-83
2022/08/26 09:31:09;;;;;;;75.00;11.27;;;22.80;99.90;;;;;;5075215;28;20406;-83
2022/08/26 09:33:34;;;;;;;77.47;12.30;;;22.80;99.90;;;;;;5075008;28;20450;-84
2022/08/26 09:36:22;;;;;;;74.83;11.87;;;22.90;99.90;;;;;;5093032;28;20464;-83
2022/08/26 09:38:51;;;;;;;72.40;10.70;;;23.00;99.90;;;;;;5093742;28;20570;-84
2022/08/26 09:41:31;;;;;;;71.20;9.70;;;23.10;99.90;;;;;;5093018;28;20458;-84
2022/08/26 09:44:07;;;;;;;72.43;12.10;;;23.10;99.90;;;;;;5075641;28;20415;-84
2022/08/26 09:46:33;;;;;;;72.90;11.40;;;23.20;99.90;;;;;;5074835;28;20441;-83
2022/08/26 09:49:19;;;;;;;74.17;10.00;;;23.20;99.90;;;;;;5092305;28;20386;-84
2022/08/26 09:51:45;;;;;;;72.53;9.33;;;23.30;98.90;;;;;;5064498;28;20444;-84
2022/08/26 09:54:25;;;;;;;72.40;9.10;;;23.30;98.40;;;;;;5092502;28;20384;-84
2022/08/26 09:56:52;;;;;;;71.70;10.07;;;23.30;98.10;;;;;;5092731;28;20422;-84
2022/08/26 09:59:30;;;;;;;74.10;9.30;;;23.10;99.90;;;;;;5092668;28;20420;-84
2022/08/26 10:02:26;;;;;;;75.87;8.30;;;23.20;99.90;;;;;;5075155;28;20421;-84
2022/08/26 10:04:55;;;;;;;74.33;9.30;;;23.30;99.70;;;;;;5092889;28;20395;-84
2022/08/26 10:07:43;;;;;;;73.70;8.37;;;23.40;98.80;;;;;;5092420;28;20418;-84
2022/08/26 10:10:37;;;;;;;71.07;8.30;;;23.40;98.90;;;;;;5074583;28;20411;-84
2022/08/26 10:13:26;;;;;;;69.20;7.60;;;23.50;97.00;;;;;;5086044;28;20454;-84
2022/08/26 10:16:18;;;;;;;74.40;7.90;;;23.30;98.60;;;;;;5093845;28;20395;-83
2022/08/26 10:19:07;;;;;;;68.37;7.80;;;23.30;99.60;;;;;;5086740;28;20434;-83
2022/08/26 10:21:50;;;;;;;72.20;8.43;;;23.30;99.10;;;;;;5077282;28;20414;-84
2022/08/26 10:24:35;;;;;;;68.00;7.63;;;23.30;98.00;;;;;;5095267;28;20383;-83
2022/08/26 10:27:20;;;;;;;72.77;9.10;;;23.30;99.10;;;;;;5077266;28;20458;-83
2022/08/26 10:29:49;;;;;;;68.30;8.10;;;23.40;97.30;;;;;;5092991;22;20493;-81
2022/08/26 10:32:46;;;;;;;77.30;11.40;;;23.40;97.00;;;;;;5074996;28;20450;-81
2022/08/26 10:35:16;;;;;;;73.10;9.40;;;23.30;95.20;;;;;;5074537;28;20411;-81
2022/08/26 10:38:06;;;;;;;70.87;9.50;;;23.20;98.10;;;;;;5075644;28;20441;-82
2022/08/26 10:41:15;;;;;;;74.67;9.10;;;23.20;98.60;;;;;;5057262;28;20770;-82
2022/08/26 10:44:04;;;;;;;71.10;7.67;;;23.40;95.50;;;;;;5014494;28;20423;-82
2022/08/26 10:46:43;;;;;;;70.33;7.50;;;23.50;95.80;;;;;;5012678;28;20433;-80
2022/08/26 10:49:13;;;;;;;69.13;7.20;;;23.60;92.50;;;;;;5058657;28;20414;-81
2022/08/26 10:51:52;;;;;;;70.40;8.40;;;23.70;92.80;;;;;;5056546;28;20450;-81
2022/08/26 10:54:33;;;;;;;68.93;7.17;;;23.60;90.50;;;;;;5057313;28;20387;-80
2022/08/26 10:57:37;;;;;;;65.97;6.57;;;23.50;92.20;;;;;;5074487;28;20443;-80
2022/08/26 11:03:27;;;;;;;65.80;5.70;;;23.60;91.90;;;;;;5074766;28;20370;-80
2022/08/26 11:06:18;;;;;;;69.60;6.13;;;23.60;91.30;;;;;;5055779;28;20391;-80
2022/08/26 11:08:49;;;;;;;73.10;6.37;;;23.70;86.50;;;;;;5074205;28;20430;-81
2022/08/26 11:11:39;;;;;;;71.17;8.50;;;23.70;87.90;;;;;;5074302;28;20448;-80
2022/08/26 11:14:10;;;;;;;71.13;6.90;;;23.80;84.50;;;;;;5056413;28;20422;-80
2022/08/26 11:16:40;;;;;;;68.73;6.40;;;23.80;80.90;;;;;;5074267;28;20424;-81
2022/08/26 11:19:28;;;;;;;70.03;6.90;;;23.80;82.00;;;;;;5056749;28;20406;-81
2022/08/26 11:22:04;;;;;;;68.83;7.60;;;23.90;78.60;;;;;;5075335;28;20467;-81
2022/08/26 11:24:45;;;;;;;67.97;7.60;;;24.00;76.00;;;;;;5075213;28;20386;-81
2022/08/26 11:27:33;;;;;;;75.30;7.23;;;24.10;71.90;;;;;;5075136;28;20419;-81
2022/08/26 11:30:11;;;;;;;69.17;7.30;;;24.10;72.00;;;;;;5056673;28;20423;-81
2022/08/26 11:32:40;;;;;;;71.40;7.50;;;24.00;69.10;;;;;;5056776;28;20446;-82
2022/08/26 11:35:33;;;;;;;69.50;7.20;;;24.00;69.50;;;;;;5057060;28;20442;-81
2022/08/26 11:38:18;;;;;;;69.60;8.00;;;24.00;72.20;;;;;;5041646;28;20429;-81
2022/08/26 11:41:28;;;;;;;71.30;7.23;;;24.00;68.70;;;;;;5057149;28;20401;-82
2022/08/26 11:43:55;;;;;;;68.60;7.60;;;24.10;68.40;;;;;;5049392;28;20434;-82
2022/08/26 11:46:29;;;;;;;69.83;6.57;;;24.00;72.40;;;;;;5075052;28;20429;-82
2022/08/26 11:49:04;;;;;;;68.40;6.47;;;24.10;69.00;;;;;;5075218;28;20389;-82
2022/08/26 11:51:31;;;;;;;71.27;6.17;;;24.20;69.50;;;;;;5074827;28;20416;-81
2022/08/26 11:54:17;;;;;;;68.70;8.60;;;24.30;67.40;;;;;;5074213;28;20395;-81
2022/08/26 11:56:45;;;;;;;68.77;7.63;;;24.30;70.10;;;;;;5075082;28;20451;-81
2022/08/26 11:59:17;;;;;;;73.10;8.43;;;24.40;72.30;;;;;;5074982;28;20400;-81
2022/08/26 12:01:47;;;;;;;74.83;7.70;;;24.30;76.90;;;;;;5075451;28;20852;-82
2022/08/26 12:04:28;;;;;;;67.87;7.70;;;24.30;76.80;;;;;;5074455;28;20378;-81
2022/08/26 12:06:55;;;;;;;69.30;6.20;;;24.40;73.90;;;;;;5056515;28;20426;-81
2022/08/26 12:09:27;;;;;;;73.13;8.70;;;24.50;72.00;;;;;;5074272;28;20401;-80
2022/08/26 12:12:21;;;;;;;77.27;7.80;;;24.40;73.40;;;;;;5076110;28;20475;-82
2022/08/26 12:14:47;;;;;;;68.77;7.10;;;24.40;78.60;;;;;;5056501;28;20403;-82
2022/08/26 12:17:18;;;;;;;69.13;7.20;;;24.40;75.70;;;;;;5075096;28;20820;-81
2022/08/26 12:19:44;;;;;;;68.53;6.87;;;24.50;75.30;;;;;;5077520;28;20164;-81
2022/08/26 12:22:34;;;;;;;68.00;6.93;;;24.50;73.60;;;;;;5077852;28;20476;-81
2022/08/26 12:25:04;;;;;;;72.40;7.20;;;24.50;74.80;;;;;;5078541;28;20155;-82
2022/08/26 12:27:38;;;;;;;69.97;6.70;;;24.60;75.70;;;;;;5078005;28;20424;-81
2022/08/26 12:30:10;;;;;;;70.67;7.40;;;24.60;74.50;;;;;;5077703;28;20470;-81
2022/08/26 12:32:38;;;;;;;68.80;6.80;;;24.60;74.70;;;;;;5059932;28;20809;-82
2022/08/26 12:35:08;;;;;;;68.90;6.50;;;24.80;73.70;;;;;;5060095;28;20433;-81
2022/08/26 12:37:38;;;;;;;69.47;5.73;;;24.80;68.30;;;;;;5078439;28;20412;-81
2022/08/26 12:40:29;;;;;;;67.60;6.13;;;24.80;64.40;;;;;;5060047;28;20412;-81
2022/08/26 12:42:57;;;;;;;76.67;7.33;;;24.60;69.90;;;;;;5060173;28;20408;-82
2022/08/26 12:45:36;;;;;;;69.00;6.37;;;24.60;70.50;;;;;;5078188;28;20977;-81
2022/08/26 12:48:09;;;;;;;69.40;8.03;;;24.60;71.60;;;;;;5078457;28;20473;-82
2022/08/26 12:50:44;;;;;;;70.83;8.63;;;24.50;70.60;;;;;;5060506;28;20399;-82
2022/08/26 12:53:10;;;;;;;67.53;7.63;;;24.40;76.60;;;;;;5078727;28;20793;-82
2022/08/26 12:55:49;;;;;;;71.03;8.10;;;24.30;81.40;;;;;;5079189;28;20391;-81
2022/08/26 12:58:14;;;;;;;74.67;8.80;;;24.40;81.50;;;;;;5078842;28;20204;-82